sensor_id;sensor_type;location;lat;lon;timestamp;pressure;altitude;pressure_sealevel;temperature
69415;BMP280;56608;43.530;-5.652;2022-10-16T00:00:07;101011.00;;;19.63
69415;BMP280;56608;43.530;-5.652;2022-10-16T00:01:11;101010.25;;;19.63
69415;BMP280;56608;43.530;-5.652;2022-10-16T00:02:12;101003.28;;;19.62
69415;BMP280;56608;43.530;-5.652;2022-10-16T00:03:14;101006.28;;;19.64
69415;BMP280;56608;43.530;-5.652;2022-10-16T00:04:15;101002.31;;;19.65
69415;BMP280;56608;43.530;-5.652;2022-10-16T00:05:16;100998.38;;;19.66
69415;BMP280;56608;43.530;-5.652;2022-10-16T00:06:20;101004.31;;;19.70
69415;BMP280;56608;43.530;-5.652;2022-10-16T00:07:21;101010.00;;;19.72
69415;BMP280;56608;43.530;-5.652;2022-10-16T00:08:22;101003.34;;;19.73
69415;BMP280;56608;43.530;-5.652;2022-10-16T00:09:26;101010.53;;;19.76
69415;BMP280;56608;43.530;-5.652;2022-10-16T00:10:27;101009.81;;;19.75
69415;BMP280;56608;43.530;-5.652;2022-10-16T00:11:31;101010.31;;;19.74
69415;BMP280;56608;43.530;-5.652;2022-10-16T00:12:37;101006.78;;;19.68
69415;BMP280;56608;43.530;-5.652;2022-10-16T00:13:40;101009.00;;;19.64
69415;BMP280;56608;43.530;-5.652;2022-10-16T00:14:44;101003.28;;;19.62
69415;BMP280;56608;43.530;-5.652;2022-10-16T00:15:45;101003.28;;;19.62
69415;BMP280;56608;43.530;-5.652;2022-10-16T00:16:47;101000.34;;;19.60
69415;BMP280;56608;43.530;-5.652;2022-10-16T00:17:48;100999.84;;;19.56
69415;BMP280;56608;43.530;-5.652;2022-10-16T00:18:50;100996.34;;;19.55
69415;BMP280;56608;43.530;-5.652;2022-10-16T00:19:53;100991.91;;;19.58
69415;BMP280;56608;43.530;-5.652;2022-10-16T00:20:56;101000.34;;;19.60
69415;BMP280;56608;43.530;-5.652;2022-10-16T00:22:02;100987.94;;;19.59
69415;BMP280;56608;43.530;-5.652;2022-10-16T00:23:03;100995.38;;;19.58
69415;BMP280;56608;43.530;-5.652;2022-10-16T00:24:07;100998.09;;;19.58
69415;BMP280;56608;43.530;-5.652;2022-10-16T00:25:09;100991.16;;;19.52
69415;BMP280;56608;43.530;-5.652;2022-10-16T00:26:15;100989.66;;;19.51
69415;BMP280;56608;43.530;-5.652;2022-10-16T00:27:16;100977.53;;;19.52
69415;BMP280;56608;43.530;-5.652;2022-10-16T00:28:17;100985.72;;;19.57
69415;BMP280;56608;43.530;-5.652;2022-10-16T00:29:19;100980.03;;;19.61
69415;BMP280;56608;43.530;-5.652;2022-10-16T00:30:20;100978.53;;;19.60
69415;BMP280;56608;43.530;-5.652;2022-10-16T00:31:22;100978.75;;;19.62
69415;BMP280;56608;43.530;-5.652;2022-10-16T00:32:24;100973.06;;;19.60
69415;BMP280;56608;43.530;-5.652;2022-10-16T00:33:25;100968.13;;;19.58
69415;BMP280;56608;43.530;-5.652;2022-10-16T00:34:26;100977.03;;;19.59
69415;BMP280;56608;43.530;-5.652;2022-10-16T00:35:30;100980.03;;;19.61
69415;BMP280;56608;43.530;-5.652;2022-10-16T00:36:31;100981.50;;;19.62
69415;BMP280;56608;43.530;-5.652;2022-10-16T00:37:33;100980.25;;;19.63
69415;BMP280;56608;43.530;-5.652;2022-10-16T00:38:34;100983.00;;;19.63
69415;BMP280;56608;43.530;-5.652;2022-10-16T00:39:36;100977.53;;;19.63
69415;BMP280;56608;43.530;-5.652;2022-10-16T00:40:37;100970.59;;;19.62
69415;BMP280;56608;43.530;-5.652;2022-10-16T00:41:38;100968.87;;;19.64
69415;BMP280;56608;43.530;-5.652;2022-10-16T00:42:40;100966.88;;;19.59
69415;BMP280;56608;43.530;-5.652;2022-10-16T00:43:54;100964.62;;;19.58
69415;BMP280;56608;43.530;-5.652;2022-10-16T00:44:57;100968.34;;;19.55
69415;BMP280;56608;43.530;-5.652;2022-10-16T00:46:00;100966.63;;;19.52
69415;BMP280;56608;43.530;-5.652;2022-10-16T00:47:01;100959.69;;;19.51
69415;BMP280;56608;43.530;-5.652;2022-10-16T00:48:02;100965.87;;;19.51
69415;BMP280;56608;43.530;-5.652;2022-10-16T00:49:12;100972.03;;;19.46
69415;BMP280;56608;43.530;-5.652;2022-10-16T00:50:32;100966.88;;;19.48
69415;BMP280;56608;43.530;-5.652;2022-10-16T00:51:53;100966.13;;;19.48
69415;BMP280;56608;43.530;-5.652;2022-10-16T00:52:56;100965.59;;;19.44
69415;BMP280;56608;43.530;-5.652;2022-10-16T00:53:57;100965.34;;;19.42
69415;BMP280;56608;43.530;-5.652;2022-10-16T00:54:58;100955.66;;;19.41
69415;BMP280;56608;43.530;-5.652;2022-10-16T00:55:59;100961.09;;;19.41
69415;BMP280;56608;43.530;-5.652;2022-10-16T00:57:03;100956.66;;;19.38
69415;BMP280;56608;43.530;-5.652;2022-10-16T00:58:05;100952.44;;;19.37
69415;BMP280;56608;43.530;-5.652;2022-10-16T00:59:36;100953.66;;;19.36
69415;BMP280;56608;43.530;-5.652;2022-10-16T01:00:35;100953.44;;;19.33
69415;BMP280;56608;43.530;-5.652;2022-10-16T01:01:36;100956.41;;;19.30
69415;BMP280;56608;43.530;-5.652;2022-10-16T01:02:37;100957.84;;;19.31
69415;BMP280;56608;43.530;-5.652;2022-10-16T01:03:39;100952.41;;;19.31
69415;BMP280;56608;43.530;-5.652;2022-10-16T01:04:41;100951.94;;;19.32
69415;BMP280;56608;43.530;-5.652;2022-10-16T01:05:50;100948.69;;;19.28
69415;BMP280;56608;43.530;-5.652;2022-10-16T01:07:27;100947.22;;;19.27
69415;BMP280;56608;43.530;-5.652;2022-10-16T01:10:58;100944.94;;;19.20
69415;BMP280;56608;43.530;-5.652;2022-10-16T01:12:09;100939.03;;;19.22
69415;BMP280;56608;43.530;-5.652;2022-10-16T01:13:24;100938.28;;;19.21
69415;BMP280;56608;43.530;-5.652;2022-10-16T01:14:33;100934.31;;;19.22
69415;BMP280;56608;43.530;-5.652;2022-10-16T01:15:54;100934.56;;;19.24
69415;BMP280;56608;43.530;-5.652;2022-10-16T01:17:15;100931.84;;;19.24
69415;BMP280;56608;43.530;-5.652;2022-10-16T01:22:16;100940.19;;;19.10
69415;BMP280;56608;43.530;-5.652;2022-10-16T01:24:39;100932.47;;;18.97
69415;BMP280;56608;43.530;-5.652;2022-10-16T01:25:53;100932.00;;;18.99
69415;BMP280;56608;43.530;-5.652;2022-10-16T01:28:07;100924.56;;;18.99
69415;BMP280;56608;43.530;-5.652;2022-10-16T01:30:26;100925.09;;;19.03
69415;BMP280;56608;43.530;-5.652;2022-10-16T01:31:31;100927.81;;;19.03
69415;BMP280;56608;43.530;-5.652;2022-10-16T01:32:36;100921.34;;;19.01
69415;BMP280;56608;43.530;-5.652;2022-10-16T01:33:43;100923.56;;;18.97
69415;BMP280;56608;43.530;-5.652;2022-10-16T01:34:55;100923.06;;;18.98
69415;BMP280;56608;43.530;-5.652;2022-10-16T01:36:07;100920.34;;;18.98
69415;BMP280;56608;43.530;-5.652;2022-10-16T01:37:18;100921.03;;;18.87
69415;BMP280;56608;43.530;-5.652;2022-10-16T01:39:35;100918.50;;;18.78
69415;BMP280;56608;43.530;-5.652;2022-10-16T01:40:41;100910.09;;;18.76
69415;BMP280;56608;43.530;-5.652;2022-10-16T01:41:48;100917.50;;;18.76
69415;BMP280;56608;43.530;-5.652;2022-10-16T01:43:01;100913.81;;;18.79
69415;BMP280;56608;43.530;-5.652;2022-10-16T01:44:07;100917.53;;;18.81
69415;BMP280;56608;43.530;-5.652;2022-10-16T01:45:12;100920.97;;;18.82
69415;BMP280;56608;43.530;-5.652;2022-10-16T01:46:17;100917.00;;;18.77
69415;BMP280;56608;43.530;-5.652;2022-10-16T01:47:22;100925.13;;;18.72
69415;BMP280;56608;43.530;-5.652;2022-10-16T01:48:25;100914.25;;;18.72
69415;BMP280;56608;43.530;-5.652;2022-10-16T01:49:31;100926.81;;;18.64
69415;BMP280;56608;43.530;-5.652;2022-10-16T01:50:35;100923.56;;;18.60
69415;BMP280;56608;43.530;-5.652;2022-10-16T01:51:39;100917.63;;;18.56
69415;BMP280;56608;43.530;-5.652;2022-10-16T01:52:44;100913.91;;;18.53
69415;BMP280;56608;43.530;-5.652;2022-10-16T01:53:49;100906.97;;;18.52
69415;BMP280;56608;43.530;-5.652;2022-10-16T01:54:54;100910.16;;;18.51
69415;BMP280;56608;43.530;-5.652;2022-10-16T01:55:58;100910.16;;;18.51
69415;BMP280;56608;43.530;-5.652;2022-10-16T01:57:01;100910.16;;;18.51
69415;BMP280;56608;43.530;-5.652;2022-10-16T01:58:04;100914.63;;;18.54
69415;BMP280;56608;43.530;-5.652;2022-10-16T01:59:10;100914.63;;;18.48
69415;BMP280;56608;43.530;-5.652;2022-10-16T02:00:14;100910.88;;;18.45
69415;BMP280;56608;43.530;-5.652;2022-10-16T02:01:19;100903.94;;;18.44
69415;BMP280;56608;43.530;-5.652;2022-10-16T02:02:22;100908.59;;;18.38
69415;BMP280;56608;43.530;-5.652;2022-10-16T02:03:23;100913.50;;;18.34
69415;BMP280;56608;43.530;-5.652;2022-10-16T02:04:33;100911.50;;;18.29
69415;BMP280;56608;43.530;-5.652;2022-10-16T02:05:46;100911.13;;;18.16
69415;BMP280;56608;43.530;-5.652;2022-10-16T02:06:48;100905.44;;;18.14
69415;BMP280;56608;43.530;-5.652;2022-10-16T02:07:49;100904.91;;;18.10
69415;BMP280;56608;43.530;-5.652;2022-10-16T02:08:50;100905.53;;;18.25
69415;BMP280;56608;43.530;-5.652;2022-10-16T02:09:54;100911.50;;;18.29
69415;BMP280;56608;43.530;-5.652;2022-10-16T02:10:57;100906.59;;;18.33
69415;BMP280;56608;43.530;-5.652;2022-10-16T02:12:03;100908.06;;;18.34
69415;BMP280;56608;43.530;-5.652;2022-10-16T02:13:17;100906.50;;;18.22
69415;BMP280;56608;43.530;-5.652;2022-10-16T02:14:20;100901.56;;;18.26
69415;BMP280;56608;43.530;-5.652;2022-10-16T02:15:25;100899.88;;;18.29
69415;BMP280;56608;43.530;-5.652;2022-10-16T02:16:40;100898.16;;;18.31
69415;BMP280;56608;43.530;-5.652;2022-10-16T02:17:42;100892.19;;;18.27
69415;BMP280;56608;43.530;-5.652;2022-10-16T02:18:43;100891.91;;;18.20
69415;BMP280;56608;43.530;-5.652;2022-10-16T02:19:49;100887.94;;;18.21
69415;BMP280;56608;43.530;-5.652;2022-10-16T02:21:00;100886.62;;;18.16
69415;BMP280;56608;43.530;-5.652;2022-10-16T02:22:04;100880.69;;;18.12
69415;BMP280;56608;43.530;-5.652;2022-10-16T02:23:09;100873.75;;;18.11
69415;BMP280;56608;43.530;-5.652;2022-10-16T02:25:32;100873.28;;;18.13
69415;BMP280;56608;43.530;-5.652;2022-10-16T02:27:49;100872.53;;;18.12
69415;BMP280;56608;43.530;-5.652;2022-10-16T02:28:55;100870.31;;;18.11
69415;BMP280;56608;43.530;-5.652;2022-10-16T02:30:13;100866.81;;;18.04
69415;BMP280;56608;43.530;-5.652;2022-10-16T02:31:19;100867.59;;;18.11
69415;BMP280;56608;43.530;-5.652;2022-10-16T02:32:24;100862.81;;;18.00
69415;BMP280;56608;43.530;-5.652;2022-10-16T02:33:30;100867.00;;;17.95
69415;BMP280;56608;43.530;-5.652;2022-10-16T02:34:35;100865.25;;;17.98
69415;BMP280;56608;43.530;-5.652;2022-10-16T02:35:37;100861.09;;;18.02
69415;BMP280;56608;43.530;-5.652;2022-10-16T02:36:40;100867.78;;;18.07
69415;BMP280;56608;43.530;-5.652;2022-10-16T02:37:42;100871.31;;;18.13
69415;BMP280;56608;43.530;-5.652;2022-10-16T02:38:43;100863.97;;;18.19
69415;BMP280;56608;43.530;-5.652;2022-10-16T02:39:45;100861.94;;;18.14
69415;BMP280;56608;43.530;-5.652;2022-10-16T02:40:46;100868.59;;;18.13
69415;BMP280;56608;43.530;-5.652;2022-10-16T02:41:47;100860.87;;;18.06
69415;BMP280;56608;43.530;-5.652;2022-10-16T02:42:51;100853.69;;;18.03
69415;BMP280;56608;43.530;-5.652;2022-10-16T02:43:53;100852.16;;;17.96
69415;BMP280;56608;43.530;-5.652;2022-10-16T02:44:55;100849.47;;;18.02
69415;BMP280;56608;43.530;-5.652;2022-10-16T02:45:58;100849.50;;;18.07
69415;BMP280;56608;43.530;-5.652;2022-10-16T02:47:00;100846.03;;;18.07
69415;BMP280;56608;43.530;-5.652;2022-10-16T02:48:02;100844.75;;;17.97
69415;BMP280;56608;43.530;-5.652;2022-10-16T02:49:02;100846.28;;;18.03
69415;BMP280;56608;43.530;-5.652;2022-10-16T02:50:04;100851.25;;;18.05
69415;BMP280;56608;43.530;-5.652;2022-10-16T02:51:05;100855.69;;;18.08
69415;BMP280;56608;43.530;-5.652;2022-10-16T02:52:06;100851.63;;;17.92
69415;BMP280;56608;43.530;-5.652;2022-10-16T02:53:08;100850.00;;;17.75
69415;BMP280;56608;43.530;-5.652;2022-10-16T02:54:09;100858.69;;;17.58
69415;BMP280;56608;43.530;-5.652;2022-10-16T02:55:11;100856.69;;;17.53
69415;BMP280;56608;43.530;-5.652;2022-10-16T02:56:13;100854.56;;;17.63
69415;BMP280;56608;43.530;-5.652;2022-10-16T02:57:14;100852.84;;;17.65
69415;BMP280;56608;43.530;-5.652;2022-10-16T02:58:16;100845.16;;;17.64
69415;BMP280;56608;43.530;-5.652;2022-10-16T02:59:17;100842.28;;;17.68
69415;BMP280;56608;43.530;-5.652;2022-10-16T03:00:21;100842.81;;;17.72
69415;BMP280;56608;43.530;-5.652;2022-10-16T03:01:23;100835.88;;;17.71
69415;BMP280;56608;43.530;-5.652;2022-10-16T03:02:25;100841.53;;;17.67
69415;BMP280;56608;43.530;-5.652;2022-10-16T03:03:29;100835.50;;;17.57
69415;BMP280;56608;43.530;-5.652;2022-10-16T03:04:29;100838.47;;;17.59
69415;BMP280;56608;43.530;-5.652;2022-10-16T03:05:31;100830.84;;;17.63
69415;BMP280;56608;43.530;-5.652;2022-10-16T03:06:34;100825.69;;;17.65
69415;BMP280;56608;43.530;-5.652;2022-10-16T03:07:36;100822.03;;;17.69
69415;BMP280;56608;43.530;-5.652;2022-10-16T03:08:36;100826.50;;;17.72
69415;BMP280;56608;43.530;-5.652;2022-10-16T03:09:38;100823.03;;;17.71
69415;BMP280;56608;43.530;-5.652;2022-10-16T03:10:40;100822.12;;;17.80
69415;BMP280;56608;43.530;-5.652;2022-10-16T03:11:43;100823.56;;;17.75
69415;BMP280;56608;43.530;-5.652;2022-10-16T03:12:44;100828.53;;;17.77
69415;BMP280;56608;43.530;-5.652;2022-10-16T03:13:46;100828.78;;;17.79
69415;BMP280;56608;43.530;-5.652;2022-10-16T03:14:47;100827.22;;;17.67
69415;BMP280;56608;43.530;-5.652;2022-10-16T03:15:48;100827.66;;;17.65
69415;BMP280;56608;43.530;-5.652;2022-10-16T03:16:50;100828.94;;;17.70
69415;BMP280;56608;43.530;-5.652;2022-10-16T03:17:51;100827.72;;;17.71
69415;BMP280;56608;43.530;-5.652;2022-10-16T03:18:55;100819.31;;;17.69
69415;BMP280;56608;43.530;-5.652;2022-10-16T03:19:56;100823.25;;;17.68
69415;BMP280;56608;43.530;-5.652;2022-10-16T03:20:57;100831.19;;;17.71
69415;BMP280;56608;43.530;-5.652;2022-10-16T03:21:59;100822.53;;;17.73
69415;BMP280;56608;43.530;-5.652;2022-10-16T03:23:02;100827.03;;;17.76
69415;BMP280;56608;43.530;-5.652;2022-10-16T03:24:04;100823.34;;;17.79
69415;BMP280;56608;43.530;-5.652;2022-10-16T03:25:04;100826.56;;;17.77
69415;BMP280;56608;43.530;-5.652;2022-10-16T03:26:07;100826.38;;;17.60
69415;BMP280;56608;43.530;-5.652;2022-10-16T03:27:08;100816.91;;;17.50
69415;BMP280;56608;43.530;-5.652;2022-10-16T03:28:09;100809.47;;;17.45
69415;BMP280;56608;43.530;-5.652;2022-10-16T03:29:13;100813.63;;;17.41
69415;BMP280;56608;43.530;-5.652;2022-10-16T03:30:14;100812.63;;;17.44
69415;BMP280;56608;43.530;-5.652;2022-10-16T03:31:16;100813.63;;;17.41
69415;BMP280;56608;43.530;-5.652;2022-10-16T03:32:18;100810.19;;;17.46
69415;BMP280;56608;43.530;-5.652;2022-10-16T03:33:21;100810.91;;;17.41
69415;BMP280;56608;43.530;-5.652;2022-10-16T03:34:22;100814.38;;;17.41
69415;BMP280;56608;43.530;-5.652;2022-10-16T03:35:24;100808.47;;;17.43
69415;BMP280;56608;43.530;-5.652;2022-10-16T03:36:28;100804.44;;;17.38
69415;BMP280;56608;43.530;-5.652;2022-10-16T03:37:29;100806.41;;;17.38
69415;BMP280;56608;43.530;-5.652;2022-10-16T03:38:33;100793.84;;;17.40
69415;BMP280;56608;43.530;-5.652;2022-10-16T03:39:34;100799.13;;;17.49
69415;BMP280;56608;43.530;-5.652;2022-10-16T03:40:35;100798.06;;;17.41
69415;BMP280;56608;43.530;-5.652;2022-10-16T03:41:37;100801.72;;;17.38
69415;BMP280;56608;43.530;-5.652;2022-10-16T03:42:42;100806.72;;;17.19
69415;BMP280;56608;43.530;-5.652;2022-10-16T03:43:44;100805.50;;;17.20
69415;BMP280;56608;43.530;-5.652;2022-10-16T03:44:45;100803.06;;;17.22
69415;BMP280;56608;43.530;-5.652;2022-10-16T03:45:52;100806.50;;;17.23
69415;BMP280;56608;43.530;-5.652;2022-10-16T03:46:53;100795.69;;;17.29
69415;BMP280;56608;43.530;-5.652;2022-10-16T03:47:54;100797.47;;;17.32
69415;BMP280;56608;43.530;-5.652;2022-10-16T03:48:55;100789.09;;;17.35
69415;BMP280;56608;43.530;-5.652;2022-10-16T03:49:57;100799.28;;;17.40
69415;BMP280;56608;43.530;-5.652;2022-10-16T03:51:00;100792.34;;;17.39
69415;BMP280;56608;43.530;-5.652;2022-10-16T03:52:02;100791.66;;;17.44
69415;BMP280;56608;43.530;-5.652;2022-10-16T03:53:03;100793.37;;;17.42
69415;BMP280;56608;43.530;-5.652;2022-10-16T03:54:05;100794.13;;;17.42
69415;BMP280;56608;43.530;-5.652;2022-10-16T03:55:07;100791.41;;;17.42
69415;BMP280;56608;43.530;-5.652;2022-10-16T03:56:08;100782.53;;;17.42
69415;BMP280;56608;43.530;-5.652;2022-10-16T03:57:12;100779.31;;;17.43
69415;BMP280;56608;43.530;-5.652;2022-10-16T03:58:13;100783.00;;;17.40
69415;BMP280;56608;43.530;-5.652;2022-10-16T03:59:15;100787.66;;;17.40
69415;BMP280;56608;43.530;-5.652;2022-10-16T04:00:16;100783.19;;;17.37
69415;BMP280;56608;43.530;-5.652;2022-10-16T04:01:18;100781.03;;;17.41
69415;BMP280;56608;43.530;-5.652;2022-10-16T04:02:19;100781.03;;;17.41
69415;BMP280;56608;43.530;-5.652;2022-10-16T04:03:21;100780.06;;;17.44
69415;BMP280;56608;43.530;-5.652;2022-10-16T04:04:24;100780.78;;;17.44
69415;BMP280;56608;43.530;-5.652;2022-10-16T04:05:26;100777.84;;;17.42
69415;BMP280;56608;43.530;-5.652;2022-10-16T04:06:26;100781.03;;;17.41
69415;BMP280;56608;43.530;-5.652;2022-10-16T04:07:30;100790.59;;;17.36
69415;BMP280;56608;43.530;-5.652;2022-10-16T04:08:31;100783.41;;;17.33
69415;BMP280;56608;43.530;-5.652;2022-10-16T04:09:35;100789.47;;;17.22
69415;BMP280;56608;43.530;-5.652;2022-10-16T04:10:37;100783.72;;;17.15
69415;BMP280;56608;43.530;-5.652;2022-10-16T04:11:38;100781.06;;;17.20
69415;BMP280;56608;43.530;-5.652;2022-10-16T04:12:40;100780.78;;;17.18
69415;BMP280;56608;43.530;-5.652;2022-10-16T04:13:41;100782.28;;;17.19
69415;BMP280;56608;43.530;-5.652;2022-10-16T04:14:43;100771.63;;;17.16
69415;BMP280;56608;43.530;-5.652;2022-10-16T04:15:45;100777.44;;;17.09
69415;BMP280;56608;43.530;-5.652;2022-10-16T04:16:46;100774.50;;;17.07
69415;BMP280;56608;43.530;-5.652;2022-10-16T04:17:48;100776.47;;;17.06
69415;BMP280;56608;43.530;-5.652;2022-10-16T04:18:48;100770.06;;;17.09
69415;BMP280;56608;43.530;-5.652;2022-10-16T04:19:51;100768.03;;;17.04
69415;BMP280;56608;43.530;-5.652;2022-10-16T04:20:53;100773.00;;;17.06
69415;BMP280;56608;43.530;-5.652;2022-10-16T04:21:55;100771.72;;;17.01
69415;BMP280;56608;43.530;-5.652;2022-10-16T04:22:58;100770.44;;;16.97
69415;BMP280;56608;43.530;-5.652;2022-10-16T04:24:00;100772.13;;;16.94
69415;BMP280;56608;43.530;-5.652;2022-10-16T04:25:02;100773.91;;;16.97
69415;BMP280;56608;43.530;-5.652;2022-10-16T04:26:03;100770.97;;;17.01
69415;BMP280;56608;43.530;-5.652;2022-10-16T04:27:05;100772.13;;;16.94
69415;BMP280;56608;43.530;-5.652;2022-10-16T04:28:06;100767.66;;;16.91
69415;BMP280;56608;43.530;-5.652;2022-10-16T04:29:06;100763.19;;;16.88
69415;BMP280;56608;43.530;-5.652;2022-10-16T04:30:09;100770.09;;;16.89
69415;BMP280;56608;43.530;-5.652;2022-10-16T04:31:09;100763.91;;;16.89
69415;BMP280;56608;43.530;-5.652;2022-10-16T04:32:11;100758.91;;;16.81
69415;BMP280;56608;43.530;-5.652;2022-10-16T04:33:12;100762.84;;;16.80
69415;BMP280;56608;43.530;-5.652;2022-10-16T04:34:13;100758.03;;;16.90
69415;BMP280;56608;43.530;-5.652;2022-10-16T04:35:19;100761.22;;;16.89
69415;BMP280;56608;43.530;-5.652;2022-10-16T04:36:21;100760.19;;;16.86
69415;BMP280;56608;43.530;-5.652;2022-10-16T04:37:25;100756.66;;;16.80
69415;BMP280;56608;43.530;-5.652;2022-10-16T04:38:29;100759.31;;;16.74
69415;BMP280;56608;43.530;-5.652;2022-10-16T04:39:31;100761.03;;;16.72
69415;BMP280;56608;43.530;-5.652;2022-10-16T04:40:32;100759.19;;;16.63
69415;BMP280;56608;43.530;-5.652;2022-10-16T04:41:33;100755.00;;;16.62
69415;BMP280;56608;43.530;-5.652;2022-10-16T04:42:35;100760.41;;;16.62
69415;BMP280;56608;43.530;-5.652;2022-10-16T04:43:38;100758.63;;;16.59
69415;BMP280;56608;43.530;-5.652;2022-10-16T04:44:39;100755.66;;;16.57
69415;BMP280;56608;43.530;-5.652;2022-10-16T04:45:41;100758.06;;;16.55
69415;BMP280;56608;43.530;-5.652;2022-10-16T04:46:42;100755.44;;;16.61
69415;BMP280;56608;43.530;-5.652;2022-10-16T04:47:45;100759.19;;;16.63
69415;BMP280;56608;43.530;-5.652;2022-10-16T04:48:46;100765.16;;;16.67
69415;BMP280;56608;43.530;-5.652;2022-10-16T04:49:50;100768.25;;;16.60
69415;BMP280;56608;43.530;-5.652;2022-10-16T04:50:51;100755.72;;;16.63
69415;BMP280;56608;43.530;-5.652;2022-10-16T04:51:52;100759.91;;;16.64
69415;BMP280;56608;43.530;-5.652;2022-10-16T04:52:54;100757.50;;;16.66
69415;BMP280;56608;43.530;-5.652;2022-10-16T04:53:55;100756.94;;;16.62
69415;BMP280;56608;43.530;-5.652;2022-10-16T04:54:57;100760.09;;;16.60
69415;BMP280;56608;43.530;-5.652;2022-10-16T04:56:03;100762.97;;;16.51
69415;BMP280;56608;43.530;-5.652;2022-10-16T04:57:07;100755.84;;;16.54
69415;BMP280;56608;43.530;-5.652;2022-10-16T04:58:10;100756.97;;;16.47
69415;BMP280;56608;43.530;-5.652;2022-10-16T04:59:15;100751.97;;;16.40
69415;BMP280;56608;43.530;-5.652;2022-10-16T05:00:17;100750.09;;;16.46
69415;BMP280;56608;43.530;-5.652;2022-10-16T05:01:19;100749.53;;;16.42
69415;BMP280;56608;43.530;-5.652;2022-10-16T05:02:20;100752.50;;;16.44
69415;BMP280;56608;43.530;-5.652;2022-10-16T05:03:22;100756.44;;;16.43
69415;BMP280;56608;43.530;-5.652;2022-10-16T05:04:23;100740.72;;;16.47
69415;BMP280;56608;43.530;-5.652;2022-10-16T05:05:25;100751.44;;;16.56
69415;BMP280;56608;43.530;-5.652;2022-10-16T05:06:26;100750.75;;;16.61
69415;BMP280;56608;43.530;-5.652;2022-10-16T05:07:28;100757.88;;;16.59
69415;BMP280;56608;43.530;-5.652;2022-10-16T05:08:28;100752.28;;;16.62
69415;BMP280;56608;43.530;-5.652;2022-10-16T05:09:30;100751.69;;;16.58
69415;BMP280;56608;43.530;-5.652;2022-10-16T05:10:34;100754.16;;;16.56
69415;BMP280;56608;43.530;-5.652;2022-10-16T05:11:35;100750.22;;;16.57
69415;BMP280;56608;43.530;-5.652;2022-10-16T05:12:37;100750.47;;;16.59
69415;BMP280;56608;43.530;-5.652;2022-10-16T05:13:40;100751.03;;;16.63
69415;BMP280;56608;43.530;-5.652;2022-10-16T05:14:41;100747.41;;;16.66
69415;BMP280;56608;43.530;-5.652;2022-10-16T05:15:47;100749.41;;;16.71
69415;BMP280;56608;43.530;-5.652;2022-10-16T05:16:49;100752.59;;;16.70
69415;BMP280;56608;43.530;-5.652;2022-10-16T05:17:53;100746.72;;;16.71
69415;BMP280;56608;43.530;-5.652;2022-10-16T05:18:54;100743.47;;;16.67
69415;BMP280;56608;43.530;-5.652;2022-10-16T05:19:56;100746.44;;;16.69
69415;BMP280;56608;43.530;-5.652;2022-10-16T05:20:59;100746.06;;;16.62
69415;BMP280;56608;43.530;-5.652;2022-10-16T05:22:01;100745.72;;;16.54
69415;BMP280;56608;43.530;-5.652;2022-10-16T05:23:01;100747.22;;;16.55
69415;BMP280;56608;43.530;-5.652;2022-10-16T05:24:03;100741.53;;;16.53
69415;BMP280;56608;43.530;-5.652;2022-10-16T05:25:05;100744.06;;;16.57
69415;BMP280;56608;43.530;-5.652;2022-10-16T05:26:06;100749.81;;;16.64
69415;BMP280;56608;43.530;-5.652;2022-10-16T05:27:09;100747.12;;;16.64
69415;BMP280;56608;43.530;-5.652;2022-10-16T05:28:11;100739.25;;;16.66
69415;BMP280;56608;43.530;-5.652;2022-10-16T05:29:13;100738.03;;;16.67
69415;BMP280;56608;43.530;-5.652;2022-10-16T05:30:16;100737.94;;;16.62
69415;BMP280;56608;43.530;-5.652;2022-10-16T05:31:19;100749.81;;;16.64
69415;BMP280;56608;43.530;-5.652;2022-10-16T05:32:20;100741.97;;;16.66
69415;BMP280;56608;43.530;-5.652;2022-10-16T05:33:24;100748.59;;;16.65
69415;BMP280;56608;43.530;-5.652;2022-10-16T05:34:25;100747.19;;;16.70
69415;BMP280;56608;43.530;-5.652;2022-10-16T05:35:26;100754.31;;;16.67
69415;BMP280;56608;43.530;-5.652;2022-10-16T05:36:28;100757.72;;;16.62
69415;BMP280;56608;43.530;-5.652;2022-10-16T05:37:30;100763.66;;;16.66
69415;BMP280;56608;43.530;-5.652;2022-10-16T05:38:32;100759.75;;;16.67
69415;BMP280;56608;43.530;-5.652;2022-10-16T05:39:33;100756.28;;;16.67
69415;BMP280;56608;43.530;-5.652;2022-10-16T05:40:35;100765.16;;;16.67
69415;BMP280;56608;43.530;-5.652;2022-10-16T05:41:36;100769.34;;;16.68
69415;BMP280;56608;43.530;-5.652;2022-10-16T05:42:38;100764.31;;;16.61
69415;BMP280;56608;43.530;-5.652;2022-10-16T05:43:40;100764.25;;;16.56
69415;BMP280;56608;43.530;-5.652;2022-10-16T05:44:41;100769.75;;;16.61
69415;BMP280;56608;43.530;-5.652;2022-10-16T05:45:42;100768.38;;;16.51
69415;BMP280;56608;43.530;-5.652;2022-10-16T05:46:46;100765.87;;;16.48
69415;BMP280;56608;43.530;-5.652;2022-10-16T05:47:47;100778.28;;;16.54
69415;BMP280;56608;43.530;-5.652;2022-10-16T05:48:51;100767.44;;;16.54
69415;BMP280;56608;43.530;-5.652;2022-10-16T05:49:53;100767.50;;;16.39
69415;BMP280;56608;43.530;-5.652;2022-10-16T05:52:00;100772.72;;;16.43
69415;BMP280;56608;43.530;-5.652;2022-10-16T05:53:01;100771.22;;;16.42
69415;BMP280;56608;43.530;-5.652;2022-10-16T05:54:03;100774.97;;;16.44
69415;BMP280;56608;43.530;-5.652;2022-10-16T05:55:05;100773.09;;;16.36
69415;BMP280;56608;43.530;-5.652;2022-10-16T05:56:09;100782.84;;;16.28
69415;BMP280;56608;43.530;-5.652;2022-10-16T05:57:13;100776.66;;;16.27
69415;BMP280;56608;43.530;-5.652;2022-10-16T05:58:15;100773.50;;;16.29
69415;BMP280;56608;43.530;-5.652;2022-10-16T05:59:16;100775.91;;;16.27
69415;BMP280;56608;43.530;-5.652;2022-10-16T06:00:18;100776.47;;;16.31
69415;BMP280;56608;43.530;-5.652;2022-10-16T06:01:19;100787.31;;;16.31
69415;BMP280;56608;43.530;-5.652;2022-10-16T06:02:25;100784.34;;;16.29
69415;BMP280;56608;43.530;-5.652;2022-10-16T06:03:26;100792.25;;;16.32
69415;BMP280;56608;43.530;-5.652;2022-10-16T06:04:28;100791.44;;;16.26
69415;BMP280;56608;43.530;-5.652;2022-10-16T06:05:29;100779.84;;;16.26
69415;BMP280;56608;43.530;-5.652;2022-10-16T06:06:33;100784.62;;;16.31
69415;BMP280;56608;43.530;-5.652;2022-10-16T06:07:35;100791.50;;;16.32
69415;BMP280;56608;43.530;-5.652;2022-10-16T06:08:41;100778.72;;;16.32